Schellville, California
Current Conditions -  °F | °C
As of 12:50 PM on Saturday 25 Oct 2014 (Local Time) from KO69 Reporting Station
Broken Clouds Broken Clouds  
Wind Chill: 68°   Ceiling: 4600
Heat Index: 68°   Visibility: 7mi
Dew Point: 55°   Wind: 18mph
Humidity: 64%   Direction: 230°SW
Pressure: 30.06"   Gusts: 26mph
Location:  38.257°N, 122.459°W
Report Text: KO69 251950Z AUTO 23016G23KT 7SM FEW030 SCT037 BKN046 20/13 A3006 RMK AO1
Loading
Personal Weather Stations






























Interactive Weather Map
Tropical Storm Tracking
New forecast layout! Learn more

10-Day Weather Forecast

Advertisements
Track Severe Weather on mobile